»·PEaware :: N234CL KOTH-KOTH

N234CL :: KOTH-KOTH

FLIGHT INFORMATION

Flight Status: Arrived
Operator: Privately registered:
United States
More flights under this callsign
Pilot: Christian L. (6360)
Aircraft: PIPER PA-24 COMMANCHE
(PA24)
More flights by this aircraft type
Origin: KOTH North Bend Mun
United States
Destination: KOTH North Bend Mun
United States
More flights between these airports :: More routes between these airports
Route: +RARES
File this flight plan on PilotEdge
Remarks:
Altitude:
(Current/Filed)
4,000ft
Speed:
(Current/Filed)
140kts
Departed: 01-Nov-17 11:41 AM
Arrived: 01-Nov-17 12:19 PM
Distance/Time
Traveled:
0nm/0:38
Distance/Time
To Go:
Arrived

Flight Plot

Page will automatically refresh every two minutes.

Flight plan parsing failed; only flown route is shown


Map Options




Map Legend


Flown Route
Filed Route
Departure Airport
Arrival Airport
Navaid (VOR, NDB)
Fix

Horizontal Profiles

Position Reports

Time Latitude Longitude Heading Altitude Ground
Speed
01-Nov-17 11:25 43.412802 -124.243429 236 20ft 0kts
01-Nov-17 11:26 43.412801 -124.243431 236 20ft 0kts
01-Nov-17 11:27 43.412799 -124.243434 236 20ft 0kts
01-Nov-17 11:28 43.412798 -124.243438 236 20ft 0kts
01-Nov-17 11:29 43.412796 -124.243441 236 20ft 0kts
01-Nov-17 11:30 43.412795 -124.243444 236 20ft 0kts
01-Nov-17 11:31 43.412794 -124.243446 236 20ft 0kts
01-Nov-17 11:32 43.412792 -124.243449 236 20ft 0kts
01-Nov-17 11:33 43.412791 -124.243451 236 20ft 0kts
01-Nov-17 11:34 43.412791 -124.243453 236 20ft 0kts
01-Nov-17 11:35 43.412790 -124.243454 236 20ft 0kts
01-Nov-17 11:36 43.412789 -124.243456 236 20ft 0kts
01-Nov-17 11:37 43.412789 -124.243457 236 20ft 0kts
01-Nov-17 11:38 43.412788 -124.243457 236 20ft 0kts
01-Nov-17 11:39 43.412788 -124.243459 236 20ft 0kts
01-Nov-17 11:40 43.412787 -124.243460 236 20ft 0kts
01-Nov-17 11:41 43.411638 -124.241258 149 20ft 21kts
01-Nov-17 11:42 43.409212 -124.238597 45 20ft 0kts
01-Nov-17 11:43 43.409214 -124.238593 45 20ft 0kts
01-Nov-17 11:44 43.409217 -124.238590 45 20ft 0kts
01-Nov-17 11:45 43.409266 -124.238503 49 20ft 11kts
01-Nov-17 11:46 43.415525 -124.242958 326 175ft 90kts
01-Nov-17 11:47 43.425063 -124.269479 236 1324ft 109kts
01-Nov-17 11:48 43.418322 -124.309974 295 2269ft 116kts
01-Nov-17 11:49 43.439415 -124.311062 54 2788ft 129kts
01-Nov-17 11:50 43.434254 -124.263372 99 3749ft 130kts
01-Nov-17 11:51 43.423933 -124.214107 103 4753ft 137kts
01-Nov-17 11:52 43.418707 -124.162818 53 5666ft 134kts
01-Nov-17 11:53 43.450871 -124.137906 9 6071ft 140kts
01-Nov-17 11:54 43.490201 -124.120944 21 5926ft 150kts
01-Nov-17 11:55 43.526846 -124.094158 20 5949ft 148kts
01-Nov-17 11:56 43.564637 -124.073378 22 5955ft 150kts
01-Nov-17 11:57 43.602125 -124.044297 16 5624ft 155kts
01-Nov-17 11:58 43.641023 -124.021262 15 5575ft 149kts
01-Nov-17 11:59 43.676691 -124.014803 296 5619ft 133kts
01-Nov-17 12:00 43.676002 -124.069553 268 4838ft 144kts
01-Nov-17 12:01 43.678652 -124.124245 273 3679ft 133kts
01-Nov-17 12:02 43.681321 -124.170623 286 2619ft 125kts
01-Nov-17 12:03 43.681348 -124.219958 242 2638ft 143kts
01-Nov-17 12:04 43.664147 -124.269243 262 2615ft 140kts
01-Nov-17 12:05 43.658418 -124.322941 247 2604ft 139kts
01-Nov-17 12:06 43.638178 -124.369249 235 2650ft 139kts
01-Nov-17 12:07 43.613020 -124.411254 231 2510ft 145kts
01-Nov-17 12:08 43.589286 -124.447492 218 2589ft 134kts
01-Nov-17 12:09 43.559150 -124.475374 219 2546ft 126kts
01-Nov-17 12:10 43.527105 -124.500153 195 2594ft 144kts
01-Nov-17 12:11 43.489984 -124.517796 207 2601ft 139kts
01-Nov-17 12:12 43.452403 -124.532230 186 2600ft 143kts
01-Nov-17 12:13 43.413598 -124.531276 184 2677ft 117kts
01-Nov-17 12:14 43.384669 -124.532779 166 2553ft 106kts
01-Nov-17 12:15 43.380128 -124.499635 88 2634ft 108kts
01-Nov-17 12:16 43.374581 -124.460579 116 2609ft 98kts
01-Nov-17 12:17 43.358218 -124.429560 132 2598ft 99kts
01-Nov-17 12:18 43.350562 -124.399422 43 2594ft 90kts
01-Nov-17 12:19 43.366813 -124.374128 47 2350ft 87kts
01-Nov-17 12:20 43.380167 -124.345234 60 1456ft 85kts
01-Nov-17 12:21 43.393104 -124.314801 56 938ft 88kts
01-Nov-17 12:22 43.405195 -124.284165 53 484ft 83kts
01-Nov-17 12:23 43.415168 -124.259535 58 42ft 77kts
01-Nov-17 12:24 43.418902 -124.247258 150 20ft 13kts

Navigation Log

Ident Type
Flight plan parsing failed, navigation log unavailable